createdAt,value
2023-07-25T00:01:53.529Z,29.20
2023-07-25T00:04:21.518Z,29.20
2023-07-25T00:06:49.448Z,29.20
2023-07-25T00:09:17.334Z,29.10
2023-07-25T00:11:47.741Z,29.00
2023-07-25T00:14:15.471Z,28.80
2023-07-25T00:16:43.418Z,28.70
2023-07-25T00:19:11.426Z,28.60
2023-07-25T00:21:39.386Z,28.50
2023-07-25T00:24:07.088Z,28.60
2023-07-25T00:26:34.743Z,28.70
2023-07-25T00:29:02.474Z,28.70
2023-07-25T00:31:32.722Z,28.60
2023-07-25T00:34:00.630Z,28.60
2023-07-25T00:36:28.439Z,28.50
2023-07-25T00:38:56.045Z,28.60
2023-07-25T00:41:23.932Z,28.60
2023-07-25T00:43:51.553Z,28.70
2023-07-25T00:46:19.552Z,28.70
2023-07-25T00:48:47.476Z,28.70
2023-07-25T00:51:15.385Z,28.50
2023-07-25T00:53:44.017Z,28.50
2023-07-25T00:56:15.346Z,28.70
2023-07-25T00:58:42.954Z,28.80
2023-07-25T01:01:11.369Z,28.70
2023-07-25T01:03:41.177Z,28.70
2023-07-25T01:06:16.626Z,28.60
2023-07-25T01:08:52.784Z,28.60
2023-07-25T01:11:21.604Z,28.70
2023-07-25T01:13:51.330Z,28.80
2023-07-25T01:16:23.589Z,28.60
2023-07-25T01:18:53.449Z,28.60
2023-07-25T01:21:23.654Z,28.50
2023-07-25T01:23:51.599Z,28.50
2023-07-25T01:26:19.555Z,28.50
2023-07-25T01:28:49.285Z,28.50
2023-07-25T01:31:16.994Z,28.30
2023-07-25T01:33:44.664Z,28.30
2023-07-25T01:36:12.341Z,28.10
2023-07-25T01:38:40.006Z,28.20
2023-07-25T01:41:07.646Z,28.20
2023-07-25T01:43:35.330Z,28.30
2023-07-25T01:46:03.069Z,28.40
2023-07-25T01:48:30.758Z,28.40
2023-07-25T01:50:58.491Z,28.40
2023-07-25T01:53:26.167Z,28.30
2023-07-25T01:55:53.806Z,28.20
2023-07-25T01:58:21.491Z,28.00
2023-07-25T02:00:49.172Z,28.00
2023-07-25T02:03:19.917Z,28.00
2023-07-25T02:05:47.745Z,28.00
2023-07-25T02:08:16.166Z,28.00
2023-07-25T02:10:43.809Z,28.00
2023-07-25T02:13:12.564Z,27.90
2023-07-25T02:15:40.325Z,27.90
2023-07-25T02:18:08.066Z,27.70
2023-07-25T02:20:35.964Z,27.90
2023-07-25T02:23:04.203Z,27.90
2023-07-25T02:25:32.041Z,27.90
2023-07-25T02:27:59.835Z,27.90
2023-07-25T02:30:27.663Z,28.00
2023-07-25T02:32:55.486Z,28.00
2023-07-25T02:35:23.344Z,28.00
2023-07-25T02:37:51.065Z,28.00
2023-07-25T02:40:18.920Z,27.90
2023-07-25T02:42:46.678Z,27.90
2023-07-25T02:45:14.438Z,27.80
2023-07-25T02:47:42.177Z,27.80
2023-07-25T02:50:11.591Z,27.80
2023-07-25T02:52:39.578Z,27.90
2023-07-25T02:55:07.773Z,27.80
2023-07-25T02:57:35.682Z,27.80
2023-07-25T03:00:03.699Z,27.70
2023-07-25T03:02:31.523Z,27.70
2023-07-25T03:05:01.067Z,27.70
2023-07-25T03:07:28.939Z,27.70
2023-07-25T03:09:57.060Z,27.60
2023-07-25T03:12:26.404Z,27.60
2023-07-25T03:14:54.237Z,27.70
2023-07-25T03:17:22.037Z,27.60
2023-07-25T03:19:49.880Z,27.60
2023-07-25T03:22:20.521Z,27.50
2023-07-25T03:24:49.022Z,27.60
2023-07-25T03:27:18.504Z,27.70
2023-07-25T03:29:46.566Z,27.80
2023-07-25T03:32:14.458Z,27.80
2023-07-25T03:34:42.442Z,27.80
2023-07-25T03:37:10.450Z,27.80
2023-07-25T03:39:38.400Z,27.70
2023-07-25T03:42:06.685Z,27.60
2023-07-25T03:44:36.751Z,27.60
2023-07-25T03:47:05.515Z,27.60
2023-07-25T03:49:33.521Z,27.60
2023-07-25T03:52:01.504Z,27.50
2023-07-25T03:54:29.552Z,27.40
2023-07-25T03:56:57.504Z,27.40
2023-07-25T03:59:25.229Z,27.50
2023-07-25T04:01:53.046Z,27.40
2023-07-25T04:04:21.213Z,27.40
2023-07-25T04:06:48.989Z,27.40
2023-07-25T04:09:16.765Z,27.40
2023-07-25T04:11:44.568Z,27.30
2023-07-25T04:14:12.386Z,27.30
2023-07-25T04:16:40.281Z,27.10
2023-07-25T04:19:08.122Z,27.30
2023-07-25T04:21:35.845Z,27.30
2023-07-25T04:24:03.685Z,27.20
2023-07-25T04:26:31.567Z,27.10
2023-07-25T04:28:59.245Z,27.20
2023-07-25T04:31:27.059Z,27.10
2023-07-25T04:33:54.816Z,27.10
2023-07-25T04:36:24.309Z,27.10
2023-07-25T04:38:52.125Z,27.10
2023-07-25T04:41:20.015Z,27.20
2023-07-25T04:43:47.775Z,27.10
2023-07-25T04:46:15.745Z,27.10
2023-07-25T04:48:43.548Z,27.10
2023-07-25T04:51:11.206Z,27.10
2023-07-25T04:53:38.929Z,27.00
2023-07-25T04:56:06.771Z,27.00
2023-07-25T04:58:34.863Z,26.90
2023-07-25T05:01:02.708Z,27.00
2023-07-25T05:03:30.567Z,27.10
2023-07-25T05:05:58.620Z,27.00
2023-07-25T05:08:26.469Z,27.10
2023-07-25T05:10:55.574Z,27.10
2023-07-25T05:13:23.508Z,26.90
2023-07-25T05:15:51.377Z,27.10
2023-07-25T05:18:19.368Z,27.20
2023-07-25T05:20:47.042Z,27.20
2023-07-25T05:23:14.781Z,27.30
2023-07-25T05:25:42.606Z,27.30
2023-07-25T05:28:10.588Z,27.30
2023-07-25T05:30:38.676Z,27.30
2023-07-25T05:33:07.366Z,27.20
2023-07-25T05:35:35.148Z,27.30
2023-07-25T05:38:04.405Z,27.30
2023-07-25T05:40:32.301Z,27.20
2023-07-25T05:43:00.458Z,27.20
2023-07-25T05:45:28.448Z,27.30
2023-07-25T05:47:56.531Z,27.20
2023-07-25T05:50:24.258Z,27.20
2023-07-25T05:52:52.067Z,27.10
2023-07-25T05:55:19.931Z,27.10
2023-07-25T05:57:47.645Z,27.40
2023-07-25T06:00:15.597Z,27.40
2023-07-25T06:02:43.508Z,27.60
2023-07-25T06:05:11.240Z,27.50
2023-07-25T06:07:39.413Z,27.70
2023-07-25T06:10:08.561Z,27.80
2023-07-25T06:12:36.680Z,27.80
2023-07-25T06:15:05.864Z,27.70
2023-07-25T06:17:34.069Z,27.90
2023-07-25T06:20:02.161Z,28.00
2023-07-25T06:22:30.012Z,28.00
2023-07-25T06:24:58.120Z,28.10
2023-07-25T06:27:26.965Z,28.40
2023-07-25T06:29:55.096Z,28.40
2023-07-25T06:32:23.002Z,28.50
2023-07-25T06:34:51.405Z,28.70
2023-07-25T06:37:19.663Z,28.70
2023-07-25T06:39:47.623Z,28.80
2023-07-25T06:42:15.563Z,28.80
2023-07-25T06:44:43.448Z,29.00
2023-07-25T06:47:11.517Z,29.20
2023-07-25T06:49:39.443Z,29.20
2023-07-25T06:52:07.550Z,29.50
2023-07-25T06:54:35.485Z,29.50
2023-07-25T06:57:03.309Z,29.40
2023-07-25T06:59:31.425Z,29.60
2023-07-25T07:01:59.537Z,29.50
2023-07-25T07:04:27.518Z,29.20
2023-07-25T07:06:55.423Z,29.20
2023-07-25T07:09:23.261Z,29.30
2023-07-25T07:11:51.011Z,29.50
2023-07-25T07:14:18.818Z,29.70
2023-07-25T07:16:46.706Z,30.10
2023-07-25T07:19:14.596Z,29.60
2023-07-25T07:21:42.501Z,29.50
2023-07-25T07:24:10.402Z,29.50
2023-07-25T07:26:47.907Z,29.80
2023-07-25T07:29:22.219Z,30.20
2023-07-25T07:31:56.166Z,30.30
2023-07-25T07:34:31.063Z,30.30
2023-07-25T07:37:05.226Z,30.20
2023-07-25T07:39:41.008Z,30.30
2023-07-25T07:42:15.920Z,30.40
2023-07-25T07:44:50.064Z,30.70
2023-07-25T07:47:25.239Z,31.10
2023-07-25T07:49:55.140Z,31.10
2023-07-25T07:52:36.947Z,30.70
2023-07-25T07:55:13.145Z,30.60
2023-07-25T07:57:48.608Z,30.70
2023-07-25T08:00:17.576Z,30.80
2023-07-25T08:02:46.115Z,31.20
2023-07-25T08:05:15.043Z,31.30
2023-07-25T08:07:43.659Z,31.10
2023-07-25T08:10:11.694Z,31.50
2023-07-25T08:12:39.869Z,31.40
2023-07-25T08:15:08.799Z,31.50
2023-07-25T08:17:36.753Z,31.60
2023-07-25T08:20:05.525Z,31.90
2023-07-25T08:22:33.512Z,31.80
2023-07-25T08:25:01.693Z,31.90
2023-07-25T08:27:29.660Z,32.00
2023-07-25T08:29:57.550Z,32.40
2023-07-25T08:32:27.649Z,32.70
2023-07-25T08:34:56.740Z,33.10
2023-07-25T08:37:26.690Z,33.30
2023-07-25T08:39:54.612Z,33.50
2023-07-25T08:42:25.849Z,33.70
2023-07-25T08:44:55.168Z,33.80
2023-07-25T08:47:34.341Z,33.80
2023-07-25T08:50:05.496Z,34.10
2023-07-25T08:52:34.970Z,34.10
2023-07-25T08:55:03.558Z,34.20
2023-07-25T08:57:33.033Z,34.30
2023-07-25T09:00:01.972Z,34.30
2023-07-25T09:02:30.611Z,34.50
2023-07-25T09:04:58.652Z,34.40
2023-07-25T09:07:26.586Z,34.40
2023-07-25T09:09:55.611Z,34.30
2023-07-25T09:12:23.960Z,34.60
2023-07-25T09:14:54.042Z,34.20
2023-07-25T09:17:22.987Z,33.90
2023-07-25T09:19:50.829Z,34.00
2023-07-25T09:22:32.934Z,34.10
2023-07-25T09:25:01.451Z,34.20
2023-07-25T09:27:29.661Z,33.80
2023-07-25T09:29:58.648Z,33.80
2023-07-25T09:32:29.218Z,34.00
2023-07-25T09:35:02.539Z,33.80
2023-07-25T09:37:30.728Z,33.90
2023-07-25T09:40:00.621Z,34.20
2023-07-25T09:42:28.703Z,34.50
2023-07-25T09:44:58.967Z,34.70
2023-07-25T09:47:28.630Z,35.00
2023-07-25T09:49:58.116Z,35.20
2023-07-25T09:52:27.175Z,35.30
2023-07-25T09:54:55.105Z,35.90
2023-07-25T09:57:23.668Z,36.10
2023-07-25T09:59:53.080Z,36.40
2023-07-25T10:02:22.468Z,36.80
2023-07-25T10:04:52.102Z,37.10
2023-07-25T10:07:20.460Z,37.20
2023-07-25T10:09:49.431Z,37.00
2023-07-25T10:12:17.534Z,37.10
2023-07-25T10:14:45.506Z,37.20
2023-07-25T10:17:13.721Z,37.20
2023-07-25T10:19:53.930Z,37.00
2023-07-25T10:22:44.056Z,37.00
2023-07-25T10:25:44.299Z,36.90
2023-07-25T10:28:13.480Z,36.80
2023-07-25T10:30:47.295Z,36.40
2023-07-25T10:33:17.456Z,36.20
2023-07-25T10:35:54.545Z,35.60
2023-07-25T10:38:29.658Z,35.40
2023-07-25T10:41:15.620Z,35.30
2023-07-25T10:43:46.839Z,35.60
2023-07-25T10:46:22.953Z,35.10
2023-07-25T10:48:53.783Z,34.90
2023-07-25T10:51:23.203Z,34.60
2023-07-25T10:54:25.864Z,34.10
2023-07-25T10:57:16.213Z,33.50
2023-07-25T11:00:05.992Z,33.30
2023-07-25T11:02:38.543Z,32.90
2023-07-25T11:05:15.645Z,32.70
2023-07-25T11:07:53.479Z,32.50
2023-07-25T11:10:26.390Z,32.40
2023-07-25T11:13:00.253Z,32.60
2023-07-25T11:15:45.950Z,32.70
2023-07-25T11:18:15.748Z,33.00
2023-07-25T11:20:43.718Z,32.80
2023-07-25T11:23:11.942Z,32.70
2023-07-25T11:25:39.856Z,32.40
2023-07-25T11:28:08.187Z,32.30
2023-07-25T11:30:43.857Z,32.30
2023-07-25T11:33:12.061Z,32.30
2023-07-25T11:35:39.900Z,32.30
2023-07-25T11:38:07.726Z,32.60
2023-07-25T11:40:36.614Z,33.00
2023-07-25T11:43:12.959Z,33.50
2023-07-25T11:45:41.585Z,34.00
2023-07-25T11:48:09.882Z,34.00
2023-07-25T11:50:38.115Z,33.80
2023-07-25T11:53:06.439Z,33.50
2023-07-25T11:55:34.502Z,33.20
2023-07-25T11:58:05.519Z,32.90
2023-07-25T12:00:42.820Z,32.70
2023-07-25T12:03:27.522Z,32.60
2023-07-25T12:05:57.859Z,32.50
2023-07-25T12:08:42.561Z,32.40
2023-07-25T12:11:15.648Z,32.20
2023-07-25T12:13:53.765Z,32.40
2023-07-25T12:16:39.613Z,32.50
2023-07-25T12:19:10.546Z,32.90
2023-07-25T12:21:41.008Z,33.20
2023-07-25T12:24:10.973Z,33.30
2023-07-25T12:26:48.808Z,33.40
2023-07-25T12:29:20.190Z,33.80
2023-07-25T12:31:48.664Z,34.10
2023-07-25T12:34:23.220Z,34.20
2023-07-25T12:36:54.645Z,34.60
2023-07-25T12:39:22.615Z,35.10
2023-07-25T12:41:50.478Z,35.20
2023-07-25T12:44:19.049Z,35.10
2023-07-25T12:46:47.168Z,35.10
2023-07-25T12:49:15.596Z,35.10
2023-07-25T12:51:43.625Z,35.40
2023-07-25T12:54:11.481Z,35.80
2023-07-25T12:56:39.785Z,35.60
2023-07-25T12:59:09.085Z,36.10
2023-07-25T13:01:36.911Z,36.40
2023-07-25T13:04:05.815Z,36.50
2023-07-25T13:06:36.243Z,36.90
2023-07-25T13:09:04.189Z,37.00
2023-07-25T13:11:32.151Z,37.30
2023-07-25T13:14:00.459Z,37.10
2023-07-25T13:16:29.306Z,37.30
2023-07-25T13:18:58.033Z,37.40
2023-07-25T13:21:25.890Z,37.20
2023-07-25T13:23:53.944Z,36.70
2023-07-25T13:26:22.628Z,36.80
2023-07-25T13:28:50.690Z,36.50
2023-07-25T13:31:18.670Z,36.80
2023-07-25T13:33:46.676Z,37.10
2023-07-25T13:36:14.733Z,37.30
2023-07-25T13:38:42.779Z,37.60
2023-07-25T13:41:11.333Z,36.90
2023-07-25T13:44:04.746Z,37.20
2023-07-25T13:46:32.896Z,37.70
2023-07-25T13:49:02.086Z,38.50
2023-07-25T13:51:30.246Z,38.80
2023-07-25T13:54:00.906Z,39.20
2023-07-25T13:56:53.706Z,39.20
2023-07-25T13:59:21.695Z,39.20
2023-07-25T14:01:49.840Z,39.40
2023-07-25T14:04:18.230Z,39.50
2023-07-25T14:06:52.632Z,39.60
2023-07-25T14:09:24.887Z,39.30
2023-07-25T14:11:55.515Z,39.40
2023-07-25T14:14:23.547Z,39.70
2023-07-25T14:16:53.984Z,39.80
2023-07-25T14:19:22.024Z,39.50
2023-07-25T14:21:50.016Z,38.70
2023-07-25T14:24:17.905Z,38.80
2023-07-25T14:26:45.684Z,38.90
2023-07-25T14:29:14.007Z,39.30
2023-07-25T14:31:42.038Z,39.50
2023-07-25T14:34:09.826Z,39.20
2023-07-25T14:36:38.240Z,39.00
2023-07-25T14:39:06.465Z,39.00
2023-07-25T14:41:34.554Z,39.30
2023-07-25T14:44:02.758Z,39.70
2023-07-25T14:46:31.184Z,39.90
2023-07-25T14:48:59.602Z,40.10
2023-07-25T14:51:27.831Z,40.00
2023-07-25T14:53:55.682Z,40.30
2023-07-25T14:56:24.829Z,40.10
2023-07-25T14:58:52.824Z,39.40
2023-07-25T15:01:20.750Z,39.50
2023-07-25T15:03:48.598Z,39.40
2023-07-25T15:06:16.497Z,39.20
2023-07-25T15:08:44.688Z,38.70
2023-07-25T15:11:13.034Z,38.30
2023-07-25T15:13:40.922Z,38.40
2023-07-25T15:16:11.525Z,38.30
2023-07-25T15:18:39.718Z,38.20
2023-07-25T15:21:07.692Z,38.40
2023-07-25T15:23:35.884Z,38.10
2023-07-25T15:26:04.131Z,38.10
2023-07-25T15:28:32.513Z,37.80
2023-07-25T15:31:00.533Z,37.90
2023-07-25T15:33:28.576Z,37.80
2023-07-25T15:35:58.749Z,37.60
2023-07-25T15:38:26.729Z,37.20
2023-07-25T15:40:54.759Z,37.10
2023-07-25T15:43:22.582Z,37.00
2023-07-25T15:45:50.762Z,36.70
2023-07-25T15:48:18.987Z,36.90
2023-07-25T15:50:47.171Z,36.90
2023-07-25T15:53:15.742Z,36.90
2023-07-25T15:55:43.581Z,36.40
2023-07-25T15:58:11.652Z,36.30
2023-07-25T16:00:39.844Z,36.20
2023-07-25T16:03:07.877Z,36.00
2023-07-25T16:05:35.806Z,35.80
2023-07-25T16:08:04.555Z,35.80
2023-07-25T16:10:32.632Z,35.70
2023-07-25T16:13:02.903Z,35.90
2023-07-25T16:15:33.960Z,35.80
2023-07-25T16:18:01.967Z,35.80
2023-07-25T16:20:29.992Z,36.00
2023-07-25T16:22:57.969Z,36.00
2023-07-25T16:25:26.521Z,36.10
2023-07-25T16:27:54.583Z,36.10
2023-07-25T16:30:22.439Z,35.80
2023-07-25T16:32:50.810Z,35.90
2023-07-25T16:35:18.641Z,35.90
2023-07-25T16:37:46.169Z,36.00
2023-07-25T16:40:14.154Z,36.00
2023-07-25T16:42:42.002Z,35.70
2023-07-25T16:45:10.638Z,35.60
2023-07-25T16:47:38.545Z,35.60
2023-07-25T16:50:07.058Z,35.70
2023-07-25T16:52:38.270Z,35.80
2023-07-25T16:55:06.952Z,36.10
2023-07-25T16:57:35.003Z,35.80
2023-07-25T17:00:02.868Z,35.30
2023-07-25T17:02:30.785Z,34.90
2023-07-25T17:04:59.698Z,34.30
2023-07-25T17:07:28.057Z,34.00
2023-07-25T17:09:55.924Z,33.60
2023-07-25T17:12:23.623Z,33.30
2023-07-25T17:14:51.459Z,33.10
2023-07-25T17:17:21.487Z,32.80
2023-07-25T17:19:49.663Z,32.60
2023-07-25T17:22:17.618Z,32.60
2023-07-25T17:24:45.466Z,32.30
2023-07-25T17:27:14.537Z,32.30
2023-07-25T17:29:42.614Z,32.30
2023-07-25T17:32:10.382Z,32.30
2023-07-25T17:34:38.183Z,32.10
2023-07-25T17:37:08.086Z,32.20
2023-07-25T17:39:35.717Z,32.00
2023-07-25T17:42:03.701Z,32.00
2023-07-25T17:44:31.575Z,31.80
2023-07-25T17:46:59.486Z,31.80
2023-07-25T17:49:27.500Z,32.00
2023-07-25T17:51:55.559Z,31.80
2023-07-25T17:54:23.578Z,31.90
2023-07-25T17:56:51.596Z,31.80
2023-07-25T17:59:19.475Z,31.70
2023-07-25T18:01:47.532Z,31.60
2023-07-25T18:04:15.554Z,31.50
2023-07-25T18:06:43.180Z,31.40
2023-07-25T18:09:11.057Z,31.40
2023-07-25T18:11:38.923Z,31.30
2023-07-25T18:14:06.640Z,31.30
2023-07-25T18:16:34.415Z,31.20
2023-07-25T18:19:02.144Z,31.20
2023-07-25T18:21:30.222Z,31.10
2023-07-25T18:23:59.225Z,31.10
2023-07-25T18:26:27.098Z,31.00
2023-07-25T18:28:54.812Z,30.90
2023-07-25T18:31:22.608Z,30.90
2023-07-25T18:33:50.560Z,30.60
2023-07-25T18:36:18.475Z,30.60
2023-07-25T18:38:46.496Z,30.60
2023-07-25T18:41:14.544Z,30.50
2023-07-25T18:43:42.518Z,30.60
2023-07-25T18:46:10.562Z,30.60
2023-07-25T18:48:38.499Z,30.50
2023-07-25T18:51:06.830Z,30.50
2023-07-25T18:53:34.702Z,30.40
2023-07-25T18:56:02.507Z,30.40
2023-07-25T18:58:30.466Z,30.40
2023-07-25T19:00:58.527Z,30.40
2023-07-25T19:03:29.651Z,30.30
2023-07-25T19:05:57.905Z,30.30
2023-07-25T19:08:25.731Z,30.20
2023-07-25T19:10:53.547Z,30.20
2023-07-25T19:13:22.716Z,30.10
2023-07-25T19:15:50.504Z,30.20
2023-07-25T19:18:19.005Z,30.20
2023-07-25T19:20:46.723Z,30.10
2023-07-25T19:23:25.103Z,30.10
2023-07-25T19:25:59.425Z,30.10
2023-07-25T19:28:28.516Z,30.10
2023-07-25T19:30:58.081Z,30.00
2023-07-25T19:33:29.465Z,30.10
2023-07-25T19:35:59.531Z,30.00
2023-07-25T19:38:29.053Z,30.10
2023-07-25T19:40:57.094Z,30.10
2023-07-25T19:43:25.592Z,29.90
2023-07-25T19:46:03.005Z,30.00
2023-07-25T19:48:30.767Z,30.00
2023-07-25T19:50:58.492Z,30.10
2023-07-25T19:53:26.279Z,29.80
2023-07-25T19:55:55.556Z,29.90
2023-07-25T19:58:23.608Z,29.80
2023-07-25T20:00:51.497Z,29.80
2023-07-25T20:03:19.440Z,29.70
2023-07-25T20:05:47.586Z,29.70
2023-07-25T20:08:15.553Z,29.60
2023-07-25T20:10:44.797Z,29.70
2023-07-25T20:13:13.061Z,29.80
2023-07-25T20:15:40.731Z,29.80
2023-07-25T20:18:08.685Z,29.60
2023-07-25T20:20:36.828Z,29.50
2023-07-25T20:23:04.823Z,29.60
2023-07-25T20:25:32.634Z,29.50
2023-07-25T20:28:00.467Z,29.50
2023-07-25T20:30:28.375Z,29.40
2023-07-25T20:32:56.230Z,29.60
2023-07-25T20:35:24.029Z,29.50
2023-07-25T20:37:51.956Z,29.70
2023-07-25T20:40:20.521Z,29.70
2023-07-25T20:42:48.548Z,29.60
2023-07-25T20:45:16.552Z,29.50
2023-07-25T20:47:44.800Z,29.20
2023-07-25T20:50:12.583Z,29.10
2023-07-25T20:52:40.548Z,28.70
2023-07-25T20:55:09.472Z,28.70
2023-07-25T20:57:38.527Z,28.80
2023-07-25T21:00:07.555Z,28.80
2023-07-25T21:02:35.465Z,28.80
2023-07-25T21:05:03.486Z,28.80
2023-07-25T21:07:31.365Z,28.70
2023-07-25T21:09:59.178Z,28.50
2023-07-25T21:12:26.875Z,28.40
2023-07-25T21:14:54.670Z,28.30
2023-07-25T21:17:22.572Z,28.20
2023-07-25T21:19:50.570Z,28.20
2023-07-25T21:22:19.189Z,28.10
2023-07-25T21:24:47.096Z,28.10
2023-07-25T21:27:18.513Z,28.10
2023-07-25T21:29:46.369Z,28.20
2023-07-25T21:32:14.149Z,28.10
2023-07-25T21:34:42.332Z,28.20
2023-07-25T21:37:10.595Z,28.20
2023-07-25T21:39:38.475Z,28.10
2023-07-25T21:42:06.551Z,28.20
2023-07-25T21:44:34.575Z,28.20
2023-07-25T21:47:03.808Z,28.10
2023-07-25T21:49:33.553Z,28.00
2023-07-25T21:52:01.572Z,28.20
2023-07-25T21:54:29.370Z,28.10
2023-07-25T21:56:57.138Z,28.00
2023-07-25T21:59:25.232Z,28.00
2023-07-25T22:01:53.475Z,28.00
2023-07-25T22:04:21.491Z,28.00
2023-07-25T22:06:49.987Z,28.00
2023-07-25T22:09:18.590Z,28.00
2023-07-25T22:11:47.436Z,28.00
2023-07-25T22:14:15.202Z,28.00
2023-07-25T22:16:43.771Z,27.90
2023-07-25T22:19:11.624Z,27.90
2023-07-25T22:21:39.472Z,27.80
2023-07-25T22:24:07.477Z,27.80
2023-07-25T22:26:35.453Z,27.80
2023-07-25T22:29:03.422Z,27.80
2023-07-25T22:31:31.469Z,27.90
2023-07-25T22:33:59.506Z,27.80
2023-07-25T22:36:27.496Z,27.80
2023-07-25T22:39:00.764Z,27.50
2023-07-25T22:41:29.646Z,27.10
2023-07-25T22:43:58.178Z,26.60
2023-07-25T22:46:25.826Z,26.40
2023-07-25T22:48:53.896Z,26.00
2023-07-25T22:51:21.902Z,25.90
2023-07-25T22:53:50.057Z,25.80
2023-07-25T22:56:18.582Z,25.70
2023-07-25T22:58:46.857Z,25.70
2023-07-25T23:01:15.164Z,25.70
2023-07-25T23:03:43.020Z,25.70
2023-07-25T23:06:11.046Z,25.50
2023-07-25T23:08:38.897Z,25.50
2023-07-25T23:11:06.667Z,25.60
2023-07-25T23:13:34.593Z,25.70
2023-07-25T23:16:02.696Z,25.80
2023-07-25T23:18:30.516Z,25.70
2023-07-25T23:20:58.489Z,25.70
2023-07-25T23:23:26.544Z,25.80
2023-07-25T23:25:54.466Z,25.70
2023-07-25T23:28:22.527Z,25.70
2023-07-25T23:30:50.488Z,25.70
2023-07-25T23:33:18.601Z,25.90
2023-07-25T23:35:46.559Z,26.00
2023-07-25T23:38:14.472Z,26.00
2023-07-25T23:40:42.697Z,26.00
2023-07-25T23:43:10.620Z,26.00
2023-07-25T23:45:38.513Z,26.00
2023-07-25T23:48:25.495Z,26.10
2023-07-25T23:50:52.978Z,26.10
2023-07-25T23:53:20.762Z,26.10
2023-07-25T23:55:48.671Z,26.20
2023-07-25T23:58:16.496Z,26.10
